El Macero, CA (95618)

5:24 AM PST on February 13, 2016 (GMT -0800)
APRSWXNET | | Change Station
CLOSE
Current Station
Personal Weather Station
Location: El Macero, CA
Elevation: 59 ft
Nearby Weather Stations

Elev 59 ft 38.54 °N, 121.69 °W | Updated 15 minutes ago

Clear
Clear
51 °F
Feels Like 51 °F
N
4
Wind Variable Wind from NW
Gusts 0.0 mph

Today
High -- | Low -- °F
--% Chance of Precip.
Yesterday
High -- | Low -- °F
Precip. -- in
Pressure 30.24 in
Visibility 10.0 miles
Clouds Clear
Dew Point 49 °F
Humidity 92%
Rainfall in
Snow Depth Not available.
7:00 AM 5:42 PM
Waxing Crescent, 30% visible
METAR KEDU 131315Z AUTO 33005KT 10SM CLR 11/09 A3024 RMK AO1
Pressure 30.24 in
Visibility 10.0 miles
Clouds Clear
Dew Point 49 °F
Humidity 92%
Rainfall in
Snow Depth Not available.
7:00 AM 5:42 PM
Waxing Crescent, 30% visible
METAR KEDU 131315Z AUTO 33005KT 10SM CLR 11/09 A3024 RMK AO1

10-Day Weather Forecast

Almanac

Astronomy

Feb. 13, 2016 Rise Set
Actual Time
Civil Twilight
Nautical Twilight
Astronomical Twilight
Moon
Length of Visible Light
Length of Day
Tomorrow will be .
, % of the Moon is Illuminated

Today's Extremes

State Highs State Lows

Community

WunderPhotos

Upload Photos

1,892,547 photos uploaded!

WunderBlog® & News

Nearby

Air Quality

  Air Quality AQ Index Pollutant
Not available.

Snow Depth

Station Depth Elevation

Earthquake Activity

City Distance Mag. Time & Date
Minimum magnitude displayed is 2.5.

Coastal Water Temperatures

Place Temperature

Stations

Nearby Weather Stations

Station Location Temp. Windchill Dew Point Humidity Wind Precip. Elev Updated Type
                   

Watches & Warnings

There are currently no watches in effect.